Time;durP1;ratioP1;P1;durP2;ratioP2;P2;SDS_P1;SDS_P2;PMS_P1;PMS_P2;Temp;Humidity;BMP_temperature;BMP_pressure;BME280_temperature;BME280_humidity;BME280_pressure;Samples;Min_cycle;Max_cycle;Signal;HPM_P1;HPM_P2
2022/11/28 00:01:44;;;;;;;246.43;110.27;;;;;;;;;;4984984;28;20486;-53
2022/11/28 00:04:11;;;;;;;451.80;176.43;;;;;;;;;;4990628;28;20417;-54
2022/11/28 00:06:38;;;;;;;451.80;169.07;;;;;;;;;;4992811;28;20253;-53
2022/11/28 00:09:04;;;;;;;465.17;173.27;;;;;;;;;;5001717;28;20271;-53
2022/11/28 00:11:30;;;;;;;508.30;189.70;;;;;;;;;;4999514;28;20650;-53
2022/11/28 00:13:56;;;;;;;471.67;180.30;;;;;;;;;;4996538;28;20719;-53
2022/11/28 00:16:22;;;;;;;354.87;140.73;;;;;;;;;;4987534;28;20264;-54
2022/11/28 00:18:49;;;;;;;522.97;199.30;;;;;;;;;;4981746;28;20227;-54
2022/11/28 00:21:15;;;;;;;556.30;213.30;;;;;;;;;;4995253;28;20311;-53
2022/11/28 00:23:42;;;;;;;512.17;199.13;;;;;;;;;;4982499;28;20297;-54
2022/11/28 00:26:10;;;;;;;559.03;222.70;;;;;;;;;;4982371;28;20220;-54
2022/11/28 00:28:36;;;;;;;502.10;190.07;;;;;;;;;;4985129;28;20232;-54
2022/11/28 00:31:02;;;;;;;544.57;211.50;;;;;;;;;;4980980;28;20570;-54
2022/11/28 00:33:28;;;;;;;445.33;176.40;;;;;;;;;;4990890;28;20215;-54
2022/11/28 00:35:59;;;;;;;521.43;207.63;;;;;;;;;;4981783;28;20209;-54
2022/11/28 00:38:25;;;;;;;543.03;208.17;;;;;;;;;;4981426;28;20228;-56
2022/11/28 00:40:58;;;;;;;460.27;179.20;;;;;;;;;;4990566;28;20222;-53
2022/11/28 00:43:24;;;;;;;508.90;200.80;;;;;;;;;;4974426;28;20223;-54
2022/11/28 00:45:50;;;;;;;548.50;202.83;;;;;;;;;;4990747;28;20239;-54
2022/11/28 00:48:16;;;;;;;464.17;170.87;;;;;;;;;;4986030;28;20184;-53
2022/11/28 00:50:42;;;;;;;459.17;170.17;;;;;;;;;;4981607;28;20217;-53
2022/11/28 00:53:07;;;;;;;462.90;172.03;;;;;;;;;;4990983;28;20705;-54
2022/11/28 00:55:33;;;;;;;218.33;99.47;;;;;;;;;;4991778;28;20247;-54
2022/11/28 00:57:59;;;;;;;330.07;135.47;;;;;;;;;;4978785;28;20299;-54
2022/11/28 01:00:25;;;;;;;309.77;125.97;;;;;;;;;;4985254;28;20212;-54
2022/11/28 01:02:51;;;;;;;456.67;169.80;;;;;;;;;;4996296;28;20225;-54
2022/11/28 01:05:17;;;;;;;448.20;171.13;;;;;;;;;;5001815;28;20209;-54
2022/11/28 01:07:43;;;;;;;396.60;159.43;;;;;;;;;;5004342;28;20335;-53
2022/11/28 01:10:10;;;;;;;490.87;185.10;;;;;;;;;;5012631;28;20208;-53
2022/11/28 01:12:36;;;;;;;386.07;155.43;;;;;;;;;;5025142;28;20208;-54
2022/11/28 01:15:03;;;;;;;592.77;228.90;;;;;;;;;;5010873;28;20466;-54
2022/11/28 01:17:29;;;;;;;524.53;195.10;;;;;;;;;;5008265;28;20215;-54
2022/11/28 01:19:55;;;;;;;510.73;199.90;;;;;;;;;;5003451;28;20304;-53
2022/11/28 01:22:21;;;;;;;441.67;165.87;;;;;;;;;;5009195;28;20311;-54
2022/11/28 01:24:47;;;;;;;460.50;184.43;;;;;;;;;;5001096;28;20228;-53
2022/11/28 01:27:13;;;;;;;581.43;219.97;;;;;;;;;;4981391;28;20447;-54
2022/11/28 01:29:39;;;;;;;416.07;161.87;;;;;;;;;;4992770;28;20714;-54
2022/11/28 01:32:05;;;;;;;605.17;224.03;;;;;;;;;;5008349;28;20215;-54
2022/11/28 01:34:31;;;;;;;493.77;188.93;;;;;;;;;;5001527;28;20314;-53
2022/11/28 01:36:58;;;;;;;538.53;201.77;;;;;;;;;;5011635;28;20572;-54
2022/11/28 01:39:24;;;;;;;462.83;183.63;;;;;;;;;;5022184;28;20514;-53
2022/11/28 01:41:51;;;;;;;483.70;183.77;;;;;;;;;;4998870;28;20585;-54
2022/11/28 01:44:16;;;;;;;503.00;172.20;;;;;;;;;;5007253;28;20889;-54
2022/11/28 01:46:43;;;;;;;396.20;149.80;;;;;;;;;;5003312;28;20224;-53
2022/11/28 01:49:20;;;;;;;540.93;200.97;;;;;;;;;;5005444;28;20216;-53
2022/11/28 01:51:52;;;;;;;486.57;192.03;;;;;;;;;;5001678;28;20650;-54
2022/11/28 01:54:20;;;;;;;518.17;199.40;;;;;;;;;;4985572;28;20508;-53
2022/11/28 01:56:50;;;;;;;454.97;171.27;;;;;;;;;;4989553;28;20940;-54
2022/11/28 01:59:17;;;;;;;552.77;210.87;;;;;;;;;;4990205;28;20310;-54
2022/11/28 02:01:44;;;;;;;516.27;194.60;;;;;;;;;;4986555;28;20319;-53
2022/11/28 02:04:10;;;;;;;570.87;217.47;;;;;;;;;;4996427;28;20634;-54
2022/11/28 02:06:36;;;;;;;393.50;156.40;;;;;;;;;;5002393;28;20588;-54
2022/11/28 02:09:02;;;;;;;485.17;180.87;;;;;;;;;;4995724;28;20196;-54
2022/11/28 02:11:37;;;;;;;576.77;217.13;;;;;;;;;;4988492;28;20219;-53
2022/11/28 02:14:22;;;;;;;505.67;191.87;;;;;;;;;;4987825;28;20215;-54
2022/11/28 02:17:01;;;;;;;439.33;174.83;;;;;;;;;;4989433;28;20220;-54
2022/11/28 02:19:33;;;;;;;600.50;235.37;;;;;;;;;;4981870;28;20228;-54
2022/11/28 02:22:04;;;;;;;531.67;208.00;;;;;;;;;;4989108;28;20217;-54
2022/11/28 02:24:39;;;;;;;567.20;222.40;;;;;;;;;;4990366;28;20192;-53
2022/11/28 02:27:24;;;;;;;458.00;186.93;;;;;;;;;;5003496;28;20237;-54
2022/11/28 02:30:08;;;;;;;531.57;196.67;;;;;;;;;;5014216;28;20295;-53
2022/11/28 02:32:53;;;;;;;553.00;206.30;;;;;;;;;;5008042;28;20219;-54
2022/11/28 02:35:21;;;;;;;420.57;167.67;;;;;;;;;;5007680;28;20775;-53
2022/11/28 02:37:56;;;;;;;547.93;215.53;;;;;;;;;;4991215;28;21850;-53
2022/11/28 02:40:34;;;;;;;587.37;222.83;;;;;;;;;;5003009;28;20438;-53
2022/11/28 02:43:00;;;;;;;570.57;219.47;;;;;;;;;;5001998;28;20220;-54
2022/11/28 02:45:45;;;;;;;528.97;202.97;;;;;;;;;;4989262;28;20208;-53
2022/11/28 02:48:34;;;;;;;520.07;204.37;;;;;;;;;;4988944;28;20216;-54
2022/11/28 02:51:04;;;;;;;407.80;159.43;;;;;;;;;;4990778;28;20224;-54
2022/11/28 02:53:31;;;;;;;443.53;177.30;;;;;;;;;;5001118;28;20219;-53
2022/11/28 02:55:58;;;;;;;518.67;201.63;;;;;;;;;;4995408;28;20299;-54
2022/11/28 02:58:24;;;;;;;462.77;177.87;;;;;;;;;;5002035;28;20216;-54
2022/11/28 03:00:51;;;;;;;488.83;186.37;;;;;;;;;;4991102;28;20637;-53
2022/11/28 03:03:39;;;;;;;512.50;198.57;;;;;;;;;;4984692;28;20203;-53
2022/11/28 03:06:08;;;;;;;503.63;200.10;;;;;;;;;;4989139;28;20285;-53
2022/11/28 03:08:39;;;;;;;495.30;193.97;;;;;;;;;;4985521;28;20216;-53
2022/11/28 03:11:05;;;;;;;410.13;160.77;;;;;;;;;;4996585;28;20224;-54
2022/11/28 03:13:34;;;;;;;424.17;167.90;;;;;;;;;;4989092;28;20224;-54
2022/11/28 03:16:06;;;;;;;570.13;214.93;;;;;;;;;;4990290;28;20221;-54
2022/11/28 03:18:37;;;;;;;435.87;169.77;;;;;;;;;;4991601;28;20204;-54
2022/11/28 03:21:13;;;;;;;501.17;191.67;;;;;;;;;;5009794;28;20285;-54
2022/11/28 03:23:39;;;;;;;435.03;171.33;;;;;;;;;;5008007;28;20256;-54
2022/11/28 03:26:12;;;;;;;502.87;196.27;;;;;;;;;;5011921;28;20702;-53
2022/11/28 03:28:42;;;;;;;444.70;175.33;;;;;;;;;;5006223;28;20315;-53
2022/11/28 03:31:11;;;;;;;436.50;173.57;;;;;;;;;;5015293;28;20216;-53
2022/11/28 03:33:38;;;;;;;537.73;203.07;;;;;;;;;;4998728;28;21582;-53
2022/11/28 03:36:07;;;;;;;499.07;200.20;;;;;;;;;;4986415;28;20276;-54
2022/11/28 03:38:35;;;;;;;514.80;191.80;;;;;;;;;;5000346;28;20270;-53
2022/11/28 03:41:06;;;;;;;488.90;186.73;;;;;;;;;;4997854;28;20224;-54
2022/11/28 03:43:36;;;;;;;525.97;202.57;;;;;;;;;;4984892;28;20316;-54
2022/11/28 03:46:03;;;;;;;557.33;214.07;;;;;;;;;;4984827;28;20217;-53
2022/11/28 03:48:31;;;;;;;497.60;189.47;;;;;;;;;;4990836;28;20698;-53
2022/11/28 03:51:00;;;;;;;388.03;158.57;;;;;;;;;;4990976;28;20181;-54
2022/11/28 03:53:30;;;;;;;600.40;227.43;;;;;;;;;;4987315;28;20605;-54
2022/11/28 03:55:59;;;;;;;484.53;196.37;;;;;;;;;;4990882;28;20216;-53
2022/11/28 03:58:28;;;;;;;563.83;217.23;;;;;;;;;;4976668;28;20923;-53
2022/11/28 04:01:02;;;;;;;455.30;179.97;;;;;;;;;;4982847;28;20209;-53
2022/11/28 04:03:40;;;;;;;528.83;214.53;;;;;;;;;;4998959;28;20205;-54
2022/11/28 04:06:27;;;;;;;495.33;197.23;;;;;;;;;;5002506;28;20460;-53
2022/11/28 04:09:00;;;;;;;439.70;175.90;;;;;;;;;;5015300;28;20564;-54
2022/11/28 04:11:30;;;;;;;523.50;199.67;;;;;;;;;;5024552;28;20660;-54
2022/11/28 04:14:05;;;;;;;515.57;209.03;;;;;;;;;;5013868;28;20696;-54
2022/11/28 04:16:37;;;;;;;549.97;214.67;;;;;;;;;;5023318;28;20227;-53
2022/11/28 04:19:12;;;;;;;585.80;232.27;;;;;;;;;;4998239;28;20334;-53
2022/11/28 04:21:38;;;;;;;485.50;190.90;;;;;;;;;;4983904;28;21516;-53
2022/11/28 04:24:10;;;;;;;425.23;169.30;;;;;;;;;;4986421;28;20861;-53
2022/11/28 04:26:39;;;;;;;434.33;172.80;;;;;;;;;;4982307;28;20220;-53
2022/11/28 04:29:07;;;;;;;540.67;206.17;;;;;;;;;;4995537;28;22844;-54
2022/11/28 04:31:33;;;;;;;567.50;210.77;;;;;;;;;;4984638;28;23156;-54
2022/11/28 04:34:03;;;;;;;506.80;201.77;;;;;;;;;;4990162;28;20476;-54
2022/11/28 04:36:30;;;;;;;588.87;226.80;;;;;;;;;;4980642;28;20691;-54
2022/11/28 04:38:57;;;;;;;404.70;158.47;;;;;;;;;;4983007;28;20285;-54
2022/11/28 04:41:26;;;;;;;535.33;200.57;;;;;;;;;;5021196;28;20235;-53
2022/11/28 04:44:00;;;;;;;574.87;215.57;;;;;;;;;;4986732;28;20221;-54
2022/11/28 04:46:30;;;;;;;395.53;158.73;;;;;;;;;;4985386;28;20212;-53
2022/11/28 04:48:57;;;;;;;596.17;228.17;;;;;;;;;;4987327;28;20364;-53
2022/11/28 04:51:27;;;;;;;511.63;198.23;;;;;;;;;;4982350;28;21621;-54
2022/11/28 04:53:53;;;;;;;473.53;183.40;;;;;;;;;;4980375;28;20213;-54
2022/11/28 04:56:25;;;;;;;547.67;206.47;;;;;;;;;;4979995;28;20213;-54
2022/11/28 04:58:51;;;;;;;555.47;216.70;;;;;;;;;;4983984;28;20278;-54
2022/11/28 05:01:20;;;;;;;416.47;168.80;;;;;;;;;;4981769;28;20209;-54
2022/11/28 05:03:46;;;;;;;489.10;191.83;;;;;;;;;;4983442;28;20298;-53
2022/11/28 05:06:22;;;;;;;488.70;189.07;;;;;;;;;;4981423;28;20332;-54
2022/11/28 05:08:48;;;;;;;612.37;235.87;;;;;;;;;;4977559;28;20307;-54
2022/11/28 05:11:14;;;;;;;456.27;179.73;;;;;;;;;;4972890;28;20224;-54
2022/11/28 05:13:39;;;;;;;605.90;231.60;;;;;;;;;;4984118;28;20274;-53
2022/11/28 05:16:06;;;;;;;403.73;160.27;;;;;;;;;;4974136;28;20401;-53
2022/11/28 05:18:31;;;;;;;460.47;183.57;;;;;;;;;;4975626;28;20188;-54
2022/11/28 05:20:58;;;;;;;524.47;210.47;;;;;;;;;;5000883;28;20189;-54
2022/11/28 05:23:24;;;;;;;407.70;161.07;;;;;;;;;;4987278;28;20314;-54
2022/11/28 05:25:50;;;;;;;581.83;222.40;;;;;;;;;;4997385;28;20219;-54
2022/11/28 05:28:16;;;;;;;467.10;184.93;;;;;;;;;;4990983;28;20585;-54
2022/11/28 05:30:42;;;;;;;589.90;218.50;;;;;;;;;;4981262;28;20252;-54
2022/11/28 05:33:08;;;;;;;436.27;173.40;;;;;;;;;;4985842;28;20695;-54
2022/11/28 05:35:33;;;;;;;615.70;235.93;;;;;;;;;;4979094;28;20219;-54
2022/11/28 05:37:59;;;;;;;651.40;249.93;;;;;;;;;;5000474;28;20448;-53
2022/11/28 05:40:25;;;;;;;547.70;208.23;;;;;;;;;;4996427;28;20247;-54
2022/11/28 05:42:51;;;;;;;374.33;149.27;;;;;;;;;;4986746;28;20696;-54
2022/11/28 05:45:17;;;;;;;488.83;186.97;;;;;;;;;;5003381;28;20184;-54
2022/11/28 05:47:43;;;;;;;594.07;225.57;;;;;;;;;;5013146;28;20283;-54
2022/11/28 05:50:09;;;;;;;443.87;176.47;;;;;;;;;;4995267;28;20228;-54
2022/11/28 05:52:35;;;;;;;547.70;204.17;;;;;;;;;;4999016;28;20606;-54
2022/11/28 05:55:01;;;;;;;518.23;200.97;;;;;;;;;;4993534;28;20313;-54
2022/11/28 05:57:28;;;;;;;438.67;175.13;;;;;;;;;;5007676;28;20193;-54
2022/11/28 05:59:55;;;;;;;384.63;156.00;;;;;;;;;;4994900;28;20207;-53
2022/11/28 06:02:20;;;;;;;496.03;197.63;;;;;;;;;;4991574;28;20228;-54
2022/11/28 06:04:46;;;;;;;581.10;216.87;;;;;;;;;;4988793;28;20216;-54
2022/11/28 06:07:12;;;;;;;461.40;178.87;;;;;;;;;;4994248;28;20271;-54
2022/11/28 06:09:38;;;;;;;644.53;247.63;;;;;;;;;;4994913;28;20216;-54
2022/11/28 06:12:04;;;;;;;752.97;317.50;;;;;;;;;;4971038;28;20569;-52
2022/11/28 06:14:30;;;;;;;454.87;185.60;;;;;;;;;;4970307;28;20575;-53
2022/11/28 06:16:56;;;;;;;478.90;196.17;;;;;;;;;;4985487;28;20455;-53
2022/11/28 06:19:22;;;;;;;519.53;210.90;;;;;;;;;;4961327;28;20224;-53
2022/11/28 06:21:49;;;;;;;647.33;251.73;;;;;;;;;;4980555;28;20216;-54
2022/11/28 06:24:15;;;;;;;492.63;190.87;;;;;;;;;;4986083;28;20211;-54
2022/11/28 06:26:41;;;;;;;562.83;221.83;;;;;;;;;;4982164;28;20846;-54
2022/11/28 06:29:07;;;;;;;446.03;171.77;;;;;;;;;;4974368;28;20614;-52
2022/11/28 06:31:33;;;;;;;504.87;196.10;;;;;;;;;;4986287;28;20292;-54
2022/11/28 06:33:59;;;;;;;640.00;245.20;;;;;;;;;;4972826;28;20254;-53
2022/11/28 06:36:25;;;;;;;607.63;231.43;;;;;;;;;;4990621;28;20196;-53
2022/11/28 06:38:52;;;;;;;407.20;164.00;;;;;;;;;;4995718;28;20283;-53
2022/11/28 06:41:19;;;;;;;589.50;227.27;;;;;;;;;;5001874;28;20323;-52
2022/11/28 06:43:45;;;;;;;663.70;255.43;;;;;;;;;;4980974;28;20975;-54
2022/11/28 06:46:16;;;;;;;550.27;217.70;;;;;;;;;;4978592;28;20216;-53
2022/11/28 06:48:42;;;;;;;714.37;278.77;;;;;;;;;;4981848;28;20224;-53
2022/11/28 06:51:08;;;;;;;585.03;229.47;;;;;;;;;;4991464;28;20188;-53
2022/11/28 06:53:35;;;;;;;454.50;184.70;;;;;;;;;;5008966;28;20696;-53
2022/11/28 06:56:04;;;;;;;592.73;232.63;;;;;;;;;;4999538;28;20306;-52
2022/11/28 06:58:30;;;;;;;517.53;205.60;;;;;;;;;;5004687;28;20224;-52
2022/11/28 07:00:56;;;;;;;614.63;227.87;;;;;;;;;;5007512;28;20227;-52
2022/11/28 07:03:22;;;;;;;631.70;253.30;;;;;;;;;;4989389;28;20212;-52
2022/11/28 07:05:48;;;;;;;679.23;260.37;;;;;;;;;;5001375;28;20181;-54
2022/11/28 07:08:14;;;;;;;519.03;199.80;;;;;;;;;;5019907;28;20204;-53
2022/11/28 07:10:40;;;;;;;898.33;381.37;;;;;;;;;;4975257;28;20246;-53
2022/11/28 07:13:06;;;;;;;553.10;225.53;;;;;;;;;;4985751;28;20981;-54
2022/11/28 07:15:32;;;;;;;567.77;230.97;;;;;;;;;;4968905;28;20205;-56
2022/11/28 07:17:58;;;;;;;617.27;234.30;;;;;;;;;;4972227;28;21191;-55
2022/11/28 07:20:24;;;;;;;568.40;209.07;;;;;;;;;;4998219;28;20232;-55
2022/11/28 07:22:50;;;;;;;597.10;226.40;;;;;;;;;;5001367;28;20217;-54
2022/11/28 07:25:16;;;;;;;545.13;215.97;;;;;;;;;;5001436;28;20569;-54
2022/11/28 07:27:42;;;;;;;531.30;204.10;;;;;;;;;;5013333;28;20590;-55
2022/11/28 07:30:08;;;;;;;598.53;231.53;;;;;;;;;;5014370;28;20185;-55
2022/11/28 07:32:35;;;;;;;642.67;249.10;;;;;;;;;;4995129;28;20367;-55
2022/11/28 07:35:01;;;;;;;513.43;208.97;;;;;;;;;;4993396;28;20304;-54
2022/11/28 07:37:27;;;;;;;611.73;236.00;;;;;;;;;;4995832;28;21184;-55
2022/11/28 07:39:52;;;;;;;544.50;206.47;;;;;;;;;;5001253;28;20225;-54
2022/11/28 07:42:18;;;;;;;576.07;217.10;;;;;;;;;;4994979;28;20205;-55
2022/11/28 07:44:45;;;;;;;619.77;250.53;;;;;;;;;;5004004;28;20224;-55
2022/11/28 07:47:11;;;;;;;627.97;255.47;;;;;;;;;;4981925;28;20216;-55
2022/11/28 07:49:37;;;;;;;513.00;200.07;;;;;;;;;;4989485;28;20211;-55
2022/11/28 07:52:03;;;;;;;529.87;200.13;;;;;;;;;;5010548;28;20832;-55
2022/11/28 07:54:28;;;;;;;583.37;223.20;;;;;;;;;;5007535;28;20192;-54
2022/11/28 07:56:54;;;;;;;612.67;233.27;;;;;;;;;;5003289;28;20181;-54
2022/11/28 07:59:20;;;;;;;646.67;244.57;;;;;;;;;;5022025;28;20216;-55
2022/11/28 08:01:47;;;;;;;555.13;215.43;;;;;;;;;;5006715;28;20265;-54
2022/11/28 08:04:13;;;;;;;515.17;199.13;;;;;;;;;;5006790;28;20208;-55
2022/11/28 08:06:40;;;;;;;542.53;203.03;;;;;;;;;;5033741;28;20271;-54
2022/11/28 08:09:06;;;;;;;533.00;208.23;;;;;;;;;;5022818;28;20190;-54
2022/11/28 08:11:33;;;;;;;420.93;162.07;;;;;;;;;;5020137;28;20242;-55
2022/11/28 08:13:59;;;;;;;558.17;211.10;;;;;;;;;;5022725;28;20216;-55
2022/11/28 08:16:26;;;;;;;560.80;204.00;;;;;;;;;;5021967;28;20312;-54
2022/11/28 08:18:52;;;;;;;486.23;183.73;;;;;;;;;;5018912;28;20546;-55
2022/11/28 08:21:20;;;;;;;746.10;288.17;;;;;;;;;;5031205;28;20274;-55
2022/11/28 08:23:46;;;;;;;620.27;218.37;;;;;;;;;;5004350;28;20238;-54
2022/11/28 08:26:13;;;;;;;526.07;190.83;;;;;;;;;;5012417;28;20615;-54
2022/11/28 08:28:40;;;;;;;513.57;187.40;;;;;;;;;;5013365;28;20216;-54
2022/11/28 08:31:13;;;;;;;504.73;179.67;;;;;;;;;;5005674;28;23103;-54
2022/11/28 08:33:39;;;;;;;587.53;215.70;;;;;;;;;;5006847;28;20303;-55
2022/11/28 08:36:06;;;;;;;579.20;201.00;;;;;;;;;;5002858;28;20267;-54
2022/11/28 08:38:32;;;;;;;654.87;243.67;;;;;;;;;;4971003;28;24021;-54
2022/11/28 08:41:05;;;;;;;451.87;171.60;;;;;;;;;;4992836;28;20662;-54
2022/11/28 08:43:31;;;;;;;509.93;193.67;;;;;;;;;;5006966;28;20836;-54
2022/11/28 08:45:57;;;;;;;562.77;217.37;;;;;;;;;;5008556;28;20220;-54
2022/11/28 08:48:23;;;;;;;565.23;213.20;;;;;;;;;;5004741;28;20582;-56
2022/11/28 08:50:49;;;;;;;532.33;211.07;;;;;;;;;;5008177;28;20242;-54
2022/11/28 08:53:15;;;;;;;448.03;175.90;;;;;;;;;;4996862;28;20572;-54
2022/11/28 08:55:43;;;;;;;588.77;221.30;;;;;;;;;;5002902;28;20216;-54
2022/11/28 08:58:09;;;;;;;552.73;218.93;;;;;;;;;;4998768;28;20227;-54
2022/11/28 09:00:35;;;;;;;649.87;265.67;;;;;;;;;;4983561;28;20604;-54
2022/11/28 09:03:01;;;;;;;634.17;248.73;;;;;;;;;;4983196;28;20211;-54
2022/11/28 09:05:28;;;;;;;571.60;227.67;;;;;;;;;;4978087;28;20259;-54
2022/11/28 09:07:54;;;;;;;508.30;210.30;;;;;;;;;;4976901;28;20220;-54
2022/11/28 09:10:20;;;;;;;601.60;242.90;;;;;;;;;;4960141;28;20884;-54
2022/11/28 09:12:46;;;;;;;716.90;281.47;;;;;;;;;;4968691;28;20294;-53
2022/11/28 09:15:12;;;;;;;540.83;212.47;;;;;;;;;;4980541;28;21082;-54
2022/11/28 09:17:39;;;;;;;683.60;265.87;;;;;;;;;;4993232;28;20212;-54
2022/11/28 09:20:05;;;;;;;499.40;201.50;;;;;;;;;;5000248;28;20316;-53
2022/11/28 09:22:31;;;;;;;488.50;187.97;;;;;;;;;;5001012;28;20558;-54
2022/11/28 09:24:57;;;;;;;511.90;205.43;;;;;;;;;;5012625;28;20222;-53
2022/11/28 09:27:23;;;;;;;518.47;204.17;;;;;;;;;;4999388;28;20299;-54
2022/11/28 09:29:49;;;;;;;618.07;236.83;;;;;;;;;;5001595;28;20454;-54
2022/11/28 09:32:15;;;;;;;521.73;210.10;;;;;;;;;;4975633;28;20763;-54
2022/11/28 09:34:41;;;;;;;694.77;272.90;;;;;;;;;;4986805;28;20266;-53
2022/11/28 09:37:07;;;;;;;461.97;185.77;;;;;;;;;;4974914;28;20235;-54
2022/11/28 09:39:33;;;;;;;528.07;205.07;;;;;;;;;;4986112;28;20207;-54
2022/11/28 09:42:03;;;;;;;718.97;286.60;;;;;;;;;;5008462;28;20299;-54
2022/11/28 09:44:43;;;;;;;566.93;225.13;;;;;;;;;;4998841;28;20228;-54
2022/11/28 09:47:30;;;;;;;679.03;281.80;;;;;;;;;;4989198;28;20262;-53
2022/11/28 09:49:58;;;;;;;612.60;237.13;;;;;;;;;;4972127;28;20234;-53
2022/11/28 09:52:39;;;;;;;567.17;212.90;;;;;;;;;;4982088;28;20275;-54
2022/11/28 09:55:08;;;;;;;722.97;266.53;;;;;;;;;;4974871;28;20315;-54
2022/11/28 09:57:37;;;;;;;559.23;210.17;;;;;;;;;;4994218;28;20215;-54
2022/11/28 10:00:04;;;;;;;586.10;229.37;;;;;;;;;;4992529;28;20293;-54
2022/11/28 10:02:39;;;;;;;500.00;200.57;;;;;;;;;;4986734;28;20215;-54
2022/11/28 10:05:10;;;;;;;562.20;223.77;;;;;;;;;;4989165;28;20306;-54
2022/11/28 10:07:42;;;;;;;493.67;192.77;;;;;;;;;;5008317;28;20611;-54
2022/11/28 10:10:17;;;;;;;568.30;205.93;;;;;;;;;;5003182;28;20213;-54
2022/11/28 10:12:43;;;;;;;444.50;171.57;;;;;;;;;;5001417;28;20246;-54
2022/11/28 10:15:09;;;;;;;633.43;244.30;;;;;;;;;;5007249;28;20192;-54
2022/11/28 10:17:37;;;;;;;645.77;251.90;;;;;;;;;;5013950;28;20212;-53
2022/11/28 10:20:30;;;;;;;522.53;200.90;;;;;;;;;;5013393;28;20265;-54
2022/11/28 10:22:59;;;;;;;409.70;166.00;;;;;;;;;;5009118;28;20491;-54
2022/11/28 10:25:30;;;;;;;628.27;242.20;;;;;;;;;;5010207;28;20716;-53
2022/11/28 10:27:57;;;;;;;595.43;233.37;;;;;;;;;;5012839;28;20208;-54
2022/11/28 10:30:24;;;;;;;594.27;231.37;;;;;;;;;;5009428;28;20242;-54
2022/11/28 10:32:55;;;;;;;547.00;215.77;;;;;;;;;;5003150;28;20700;-54
2022/11/28 10:35:24;;;;;;;429.27;169.90;;;;;;;;;;5005047;28;20252;-54
2022/11/28 10:37:51;;;;;;;520.33;203.93;;;;;;;;;;5013734;28;20357;-54
2022/11/28 10:40:21;;;;;;;598.80;234.80;;;;;;;;;;5000931;28;20232;-54
2022/11/28 10:42:56;;;;;;;480.20;190.00;;;;;;;;;;4997432;28;20410;-54
2022/11/28 10:45:26;;;;;;;551.80;220.43;;;;;;;;;;5001312;28;20447;-53
2022/11/28 10:48:11;;;;;;;589.43;229.30;;;;;;;;;;5000782;28;20203;-54
2022/11/28 10:50:41;;;;;;;483.17;189.33;;;;;;;;;;5006439;28;20212;-54
2022/11/28 10:53:10;;;;;;;608.03;240.20;;;;;;;;;;5008001;28;20216;-54
2022/11/28 10:55:36;;;;;;;440.03;173.57;;;;;;;;;;5002618;28;20783;-54
2022/11/28 10:58:05;;;;;;;470.17;190.57;;;;;;;;;;5000211;28;20406;-54
2022/11/28 11:00:32;;;;;;;463.33;179.53;;;;;;;;;;4999709;28;20209;-54
2022/11/28 11:03:01;;;;;;;574.90;225.47;;;;;;;;;;5002124;28;20872;-54
2022/11/28 11:05:28;;;;;;;547.17;208.60;;;;;;;;;;4992154;28;20243;-54
2022/11/28 11:07:55;;;;;;;829.80;293.03;;;;;;;;;;4980784;28;20243;-53
2022/11/28 11:10:24;;;;;;;575.53;207.17;;;;;;;;;;4980361;28;20217;-54
2022/11/28 11:12:52;;;;;;;496.30;184.53;;;;;;;;;;4990440;28;20217;-53
2022/11/28 11:15:31;;;;;;;609.80;222.60;;;;;;;;;;4988151;28;21189;-54
2022/11/28 11:17:58;;;;;;;637.37;235.43;;;;;;;;;;4991891;28;20186;-54
2022/11/28 11:20:30;;;;;;;620.63;222.10;;;;;;;;;;4978809;28;20271;-54
2022/11/28 11:22:56;;;;;;;445.03;174.70;;;;;;;;;;4995650;28;20365;-55
2022/11/28 11:25:24;;;;;;;476.07;182.67;;;;;;;;;;5009751;28;20274;-55
2022/11/28 11:27:55;;;;;;;434.43;163.77;;;;;;;;;;5025172;28;20238;-55
2022/11/28 11:30:30;;;;;;;502.20;197.23;;;;;;;;;;5009486;28;20173;-55
2022/11/28 11:32:57;;;;;;;453.77;178.80;;;;;;;;;;5009642;28;20199;-54
2022/11/28 11:35:25;;;;;;;403.77;161.53;;;;;;;;;;5010069;28;20221;-55
2022/11/28 11:37:51;;;;;;;617.57;224.13;;;;;;;;;;4984503;28;21336;-55
2022/11/28 11:40:27;;;;;;;618.73;222.47;;;;;;;;;;4960437;28;20331;-54
2022/11/28 11:42:58;;;;;;;593.33;230.73;;;;;;;;;;4976179;28;20721;-54
2022/11/28 11:45:26;;;;;;;556.90;226.60;;;;;;;;;;4968364;28;21591;-54
2022/11/28 11:47:52;;;;;;;600.43;238.10;;;;;;;;;;4987580;28;20177;-54
2022/11/28 11:50:20;;;;;;;477.07;191.33;;;;;;;;;;4986937;28;20239;-54
2022/11/28 11:53:01;;;;;;;567.23;224.50;;;;;;;;;;4992516;28;20223;-54
2022/11/28 11:55:28;;;;;;;496.80;197.87;;;;;;;;;;4999076;28;20705;-54
2022/11/28 11:57:54;;;;;;;405.17;163.63;;;;;;;;;;4987604;28;20232;-54
2022/11/28 12:00:25;;;;;;;586.90;235.13;;;;;;;;;;4991740;28;20279;-54
2022/11/28 12:02:59;;;;;;;594.70;231.63;;;;;;;;;;4991875;28;20221;-54
2022/11/28 12:05:30;;;;;;;492.17;195.60;;;;;;;;;;4996847;28;20219;-54
2022/11/28 12:08:06;;;;;;;512.93;203.87;;;;;;;;;;5000391;28;20764;-54
2022/11/28 12:10:39;;;;;;;475.97;192.60;;;;;;;;;;4989098;28;20619;-54
2022/11/28 12:13:05;;;;;;;494.73;201.73;;;;;;;;;;4987383;28;20231;-54
2022/11/28 12:15:37;;;;;;;412.20;168.77;;;;;;;;;;4985105;28;20658;-54
2022/11/28 12:18:18;;;;;;;511.83;197.50;;;;;;;;;;5001732;28;20194;-54
2022/11/28 12:20:59;;;;;;;514.70;203.70;;;;;;;;;;4991719;28;23414;-55
2022/11/28 12:23:40;;;;;;;654.83;264.13;;;;;;;;;;4984390;28;20244;-54
2022/11/28 12:26:23;;;;;;;492.67;195.93;;;;;;;;;;4985829;28;21638;-54
2022/11/28 12:29:12;;;;;;;562.30;222.27;;;;;;;;;;5000036;28;20216;-54
2022/11/28 12:35:42;;;;;;;475.57;180.80;;;;;;;;;;5050084;27;21582;-53
2022/11/28 12:38:17;;;;;;;527.47;206.80;;;;;;;;;;5018123;28;20208;-53
2022/11/28 12:41:01;;;;;;;469.47;176.73;;;;;;;;;;5018760;28;21534;-54
2022/11/28 12:43:46;;;;;;;601.03;231.13;;;;;;;;;;5009881;28;20226;-53
2022/11/28 12:46:24;;;;;;;482.93;201.83;;;;;;;;;;5023120;28;20225;-54
2022/11/28 12:49:22;;;;;;;468.50;189.53;;;;;;;;;;5015446;28;20215;-53
2022/11/28 12:52:12;;;;;;;530.73;218.93;;;;;;;;;;4973442;28;20301;-54
2022/11/28 12:55:01;;;;;;;445.00;182.13;;;;;;;;;;5006270;28;20226;-54
2022/11/28 12:57:38;;;;;;;571.33;232.17;;;;;;;;;;5013241;28;20198;-53
2022/11/28 13:00:17;;;;;;;454.63;190.67;;;;;;;;;;5015242;28;21257;-54
2022/11/28 13:02:52;;;;;;;587.00;236.13;;;;;;;;;;5032052;28;20556;-54
2022/11/28 13:05:18;;;;;;;475.67;192.97;;;;;;;;;;5029426;28;20997;-54
2022/11/28 13:07:44;;;;;;;563.10;226.17;;;;;;;;;;5037580;28;20261;-54
2022/11/28 13:10:13;;;;;;;470.37;190.83;;;;;;;;;;5032578;28;20897;-54
2022/11/28 13:12:39;;;;;;;460.10;190.57;;;;;;;;;;5031973;28;20790;-54
2022/11/28 13:15:26;;;;;;;521.47;211.90;;;;;;;;;;5036513;28;20348;-54
2022/11/28 13:18:00;;;;;;;579.20;237.63;;;;;;;;;;5034255;28;20658;-55
2022/11/28 13:20:25;;;;;;;393.33;162.20;;;;;;;;;;5036890;28;20305;-54
2022/11/28 13:23:02;;;;;;;539.20;215.37;;;;;;;;;;5031712;28;20834;-54
2022/11/28 13:25:28;;;;;;;459.43;188.23;;;;;;;;;;5037266;28;20214;-54
2022/11/28 13:28:00;;;;;;;457.60;188.90;;;;;;;;;;5026078;28;20287;-54
2022/11/28 13:30:27;;;;;;;470.40;196.37;;;;;;;;;;5030969;28;20886;-54
2022/11/28 13:32:57;;;;;;;552.00;218.57;;;;;;;;;;5020372;28;20252;-55
2022/11/28 13:35:24;;;;;;;625.57;251.90;;;;;;;;;;5027950;28;20219;-54
2022/11/28 13:37:49;;;;;;;450.33;177.97;;;;;;;;;;5028030;28;20226;-55
2022/11/28 13:40:15;;;;;;;610.30;241.37;;;;;;;;;;5024004;28;20214;-54
2022/11/28 13:43:05;;;;;;;460.37;191.50;;;;;;;;;;5010694;28;20313;-54
2022/11/28 13:45:35;;;;;;;564.67;228.17;;;;;;;;;;5014742;28;22802;-54
2022/11/28 13:48:21;;;;;;;529.30;207.77;;;;;;;;;;5008090;28;21133;-55
2022/11/28 13:51:01;;;;;;;448.20;186.07;;;;;;;;;;5003327;28;20215;-54
2022/11/28 13:53:27;;;;;;;494.50;205.50;;;;;;;;;;5002627;28;20226;-54
2022/11/28 13:55:53;;;;;;;588.87;224.67;;;;;;;;;;5005766;28;21428;-54
2022/11/28 13:58:28;;;;;;;533.70;210.73;;;;;;;;;;4998618;28;20919;-54
2022/11/28 14:01:10;;;;;;;575.57;227.00;;;;;;;;;;5009253;28;20702;-54
2022/11/28 14:03:44;;;;;;;386.37;155.90;;;;;;;;;;5010054;28;20226;-54
2022/11/28 14:06:11;;;;;;;421.33;173.00;;;;;;;;;;5010094;28;20188;-54
2022/11/28 14:08:39;;;;;;;458.00;190.90;;;;;;;;;;5013771;28;20704;-54